Time;durP1;ratioP1;P1;durP2;ratioP2;P2;SDS_P1;SDS_P2;PMS_P1;PMS_P2;Temp;Humidity;BMP_temperature;BMP_pressure;BME280_temperature;BME280_humidity;BME280_pressure;Samples;Min_cycle;Max_cycle;Signal;HPM_P1;HPM_P2
2023/06/08 00:01:35;;;;;;;0.50;0.50;;;11.90;99.90;;;;;;5094734;28;20038;-71
2023/06/08 00:04:05;;;;;;;2.85;2.47;;;12.20;99.90;;;;;;5094025;28;20048;-72
2023/06/08 00:06:34;;;;;;;0.60;0.60;;;11.80;99.90;;;;;;5094146;28;20472;-70
2023/06/08 00:09:06;;;;;;;0.50;0.50;;;11.80;99.90;;;;;;5094205;28;20101;-71
2023/06/08 00:11:32;;;;;;;0.50;0.50;;;11.90;99.90;;;;;;5093902;28;20032;-70
2023/06/08 00:13:58;;;;;;;0.47;0.47;;;11.90;99.90;;;;;;5094488;28;20048;-70
2023/06/08 00:16:24;;;;;;;0.60;0.60;;;11.90;99.90;;;;;;5094008;28;20040;-71
2023/06/08 00:18:54;;;;;;;0.60;0.60;;;11.90;99.90;;;;;;5094074;28;20039;-71
2023/06/08 00:21:22;;;;;;;0.50;0.50;;;11.90;99.90;;;;;;5094053;28;20032;-70
2023/06/08 00:23:48;;;;;;;0.80;0.80;;;11.80;99.90;;;;;;5093934;28;20071;-70
2023/06/08 00:26:14;;;;;;;0.50;0.50;;;11.80;99.90;;;;;;5093841;28;20040;-71
2023/06/08 00:28:39;;;;;;;0.57;0.57;;;11.80;99.90;;;;;;5094358;28;20032;-70
2023/06/08 00:31:05;;;;;;;0.50;0.50;;;11.90;99.90;;;;;;5093788;28;20036;-71
2023/06/08 00:33:31;;;;;;;0.50;0.50;;;11.80;99.90;;;;;;5093831;28;20046;-71
2023/06/08 00:35:58;;;;;;;0.60;0.60;;;11.80;99.90;;;;;;5094165;28;20491;-71
2023/06/08 00:38:24;;;;;;;0.70;0.70;;;11.80;99.90;;;;;;5093697;28;20040;-70
2023/06/08 00:40:49;;;;;;;1.17;1.17;;;11.70;99.90;;;;;;5092753;28;20050;-71
2023/06/08 00:43:15;;;;;;;0.47;0.47;;;11.70;99.90;;;;;;5093695;28;20131;-70
2023/06/08 00:45:41;;;;;;;0.50;0.50;;;11.80;99.90;;;;;;5093678;28;20050;-71
2023/06/08 00:48:07;;;;;;;0.40;0.40;;;11.80;99.90;;;;;;5093654;28;20494;-70
2023/06/08 00:50:32;;;;;;;0.60;0.60;;;11.80;99.90;;;;;;5093660;28;20119;-70
2023/06/08 00:52:59;;;;;;;0.40;0.40;;;11.80;99.90;;;;;;5093612;28;20119;-70
2023/06/08 00:55:27;;;;;;;0.50;0.50;;;11.90;99.90;;;;;;5093636;28;20071;-70
2023/06/08 00:57:53;;;;;;;0.50;0.50;;;11.80;99.90;;;;;;5093568;28;20076;-71
2023/06/08 01:00:20;;;;;;;0.60;0.60;;;11.90;99.90;;;;;;5093965;28;20494;-70
2023/06/08 01:02:47;;;;;;;0.50;0.50;;;11.90;99.90;;;;;;5093255;28;20047;-71
2023/06/08 01:05:16;;;;;;;;;;;11.90;99.90;;;;;;5094159;28;20055;-71
2023/06/08 01:07:48;;;;;;;0.40;0.40;;;11.90;99.90;;;;;;5093439;28;19916;-71
2023/06/08 01:10:25;;;;;;;0.50;0.50;;;11.90;99.90;;;;;;5093388;28;20048;-70
2023/06/08 01:13:25;;;;;;;0.50;0.50;;;11.90;99.90;;;;;;5093487;28;20464;-70
2023/06/08 01:15:56;;;;;;;0.40;0.40;;;11.90;99.90;;;;;;5093425;28;20051;-71
2023/06/08 01:18:27;;;;;;;0.50;0.50;;;11.90;99.90;;;;;;5094834;28;20044;-70
2023/06/08 01:21:08;;;;;;;0.68;0.60;;;11.90;99.90;;;;;;5097410;28;20048;-71
2023/06/08 01:23:57;;;;;;;0.40;0.40;;;11.80;99.90;;;;;;5097302;28;20047;-70
2023/06/08 01:26:26;;;;;;;0.40;0.40;;;11.80;99.90;;;;;;5097279;28;20032;-69
2023/06/08 01:28:52;;;;;;;0.57;0.57;;;11.80;99.90;;;;;;5096873;28;20203;-71
2023/06/08 01:31:18;;;;;;;0.80;0.80;;;11.80;99.90;;;;;;5097103;28;20126;-71
2023/06/08 01:33:44;;;;;;;0.50;0.50;;;11.80;99.90;;;;;;5097054;28;20460;-71
2023/06/08 01:36:16;;;;;;;0.50;0.50;;;11.80;99.90;;;;;;5097052;28;20047;-71
2023/06/08 01:38:48;;;;;;;0.40;0.40;;;11.90;99.90;;;;;;5096975;28;20482;-71
2023/06/08 01:41:22;;;;;;;0.47;0.47;;;11.90;99.90;;;;;;5096699;28;20468;-70
2023/06/08 01:43:50;;;;;;;0.40;0.40;;;11.80;99.90;;;;;;5097114;28;20058;-71
2023/06/08 01:46:18;;;;;;;0.40;0.40;;;11.90;99.90;;;;;;5095678;28;20361;-72
2023/06/08 01:48:47;;;;;;;0.40;0.40;;;11.90;99.90;;;;;;5095601;28;20043;-71
2023/06/08 01:51:13;;;;;;;0.40;0.40;;;11.80;99.90;;;;;;5096655;28;20032;-70
2023/06/08 01:53:39;;;;;;;0.50;0.50;;;11.80;99.90;;;;;;5096945;28;20044;-70
2023/06/08 01:56:05;;;;;;;0.40;0.40;;;11.80;99.90;;;;;;5096718;28;20040;-70
2023/06/08 01:58:31;;;;;;;0.40;0.40;;;11.90;99.90;;;;;;5097019;28;20039;-70
2023/06/08 02:00:56;;;;;;;0.40;0.40;;;11.80;99.90;;;;;;5096621;28;20036;-70
2023/06/08 02:03:22;;;;;;;0.40;0.40;;;11.80;99.90;;;;;;5096477;28;20468;-71
2023/06/08 02:05:47;;;;;;;0.50;0.50;;;11.80;99.90;;;;;;5096470;28;20127;-70
2023/06/08 02:08:13;;;;;;;0.40;0.40;;;11.80;99.90;;;;;;5096343;28;20067;-71
2023/06/08 02:10:38;;;;;;;0.50;0.50;;;11.80;99.90;;;;;;5096253;28;20036;-71
2023/06/08 02:13:04;;;;;;;0.68;0.68;;;11.80;99.90;;;;;;5096705;28;20040;-71
2023/06/08 02:15:30;;;;;;;0.40;0.40;;;11.70;99.90;;;;;;5096333;28;20461;-71
2023/06/08 02:17:58;;;;;;;0.50;0.50;;;11.70;99.90;;;;;;5096335;28;20044;-71
2023/06/08 02:20:25;;;;;;;0.40;0.40;;;11.70;99.90;;;;;;5095227;28;20050;-71
2023/06/08 02:22:51;;;;;;;0.40;0.40;;;11.70;99.90;;;;;;5096247;28;20040;-70
2023/06/08 02:25:17;;;;;;;0.40;0.40;;;11.80;99.90;;;;;;5096092;28;20380;-70
2023/06/08 02:27:43;;;;;;;1.58;1.40;;;11.70;99.90;;;;;;5096087;28;20048;-70
2023/06/08 02:30:11;;;;;;;0.50;0.50;;;11.70;99.90;;;;;;5094732;28;20123;-70
2023/06/08 02:32:41;;;;;;;0.40;0.40;;;11.80;99.90;;;;;;5096298;28;20290;-71
2023/06/08 02:35:08;;;;;;;0.40;0.40;;;11.80;99.90;;;;;;5095948;28;20487;-71
2023/06/08 02:37:34;;;;;;;0.43;0.43;;;11.70;99.90;;;;;;5095941;28;20075;-71
2023/06/08 02:40:00;;;;;;;0.82;0.82;;;11.70;99.90;;;;;;5094678;28;20129;-71
2023/06/08 02:42:26;;;;;;;;;;;11.70;99.90;;;;;;5096189;28;20040;-71
2023/06/08 02:44:51;;;;;;;0.47;0.47;;;11.70;99.90;;;;;;5095781;28;19922;-70
2023/06/08 02:47:17;;;;;;;0.40;0.40;;;11.70;99.90;;;;;;5095812;28;20032;-72
2023/06/08 02:49:43;;;;;;;0.40;0.40;;;11.70;99.90;;;;;;5095676;28;20073;-71
2023/06/08 02:52:09;;;;;;;0.40;0.40;;;12.10;99.90;;;;;;5095560;28;20040;-70
2023/06/08 02:54:36;;;;;;;0.40;0.40;;;11.70;99.90;;;;;;5095250;28;20040;-70
2023/06/08 02:57:02;;;;;;;0.52;0.52;;;11.70;99.90;;;;;;5095542;28;20115;-71
2023/06/08 02:59:29;;;;;;;0.45;0.45;;;11.70;99.90;;;;;;5096009;28;20036;-70
2023/06/08 03:01:56;;;;;;;0.38;0.38;;;11.80;99.90;;;;;;5094389;28;20456;-70
2023/06/08 03:04:22;;;;;;;0.40;0.40;;;11.60;99.90;;;;;;5095024;28;20368;-71
2023/06/08 03:06:53;;;;;;;0.40;0.40;;;12.10;99.90;;;;;;5095225;28;20044;-71
2023/06/08 03:09:28;;;;;;;0.50;0.50;;;12.00;99.90;;;;;;5095140;28;20086;-70
2023/06/08 03:11:55;;;;;;;0.60;0.60;;;12.10;99.90;;;;;;5095744;28;20044;-71
2023/06/08 03:14:20;;;;;;;0.40;0.40;;;11.50;99.90;;;;;;5093870;28;20066;-70
2023/06/08 03:16:47;;;;;;;0.40;0.40;;;11.50;99.90;;;;;;5095029;28;20472;-71
2023/06/08 03:19:13;;;;;;;0.70;0.70;;;11.50;99.90;;;;;;5095010;28;20036;-70
2023/06/08 03:21:41;;;;;;;0.50;0.50;;;11.40;99.90;;;;;;5095020;28;20047;-70
2023/06/08 03:24:11;;;;;;;0.40;0.40;;;11.40;99.90;;;;;;5095283;28;20040;-71
2023/06/08 03:26:37;;;;;;;0.68;0.68;;;11.40;99.90;;;;;;5094908;28;20040;-70
2023/06/08 03:29:03;;;;;;;0.60;0.60;;;11.60;99.90;;;;;;5094837;28;20501;-71
2023/06/08 03:31:29;;;;;;;0.93;0.93;;;11.40;99.90;;;;;;5094765;28;20028;-70
2023/06/08 03:33:56;;;;;;;0.40;0.40;;;11.40;99.90;;;;;;5094836;28;20043;-71
2023/06/08 03:36:28;;;;;;;0.43;0.43;;;11.40;99.90;;;;;;5094790;28;20044;-71
2023/06/08 03:38:53;;;;;;;0.52;0.52;;;11.40;99.90;;;;;;5094794;28;20067;-70
2023/06/08 03:41:19;;;;;;;0.50;0.50;;;11.40;99.90;;;;;;5094175;28;20399;-70
2023/06/08 03:43:45;;;;;;;0.53;0.53;;;11.50;99.90;;;;;;5094892;28;20051;-71
2023/06/08 03:46:11;;;;;;;0.50;0.50;;;11.40;99.90;;;;;;5094543;28;20349;-70
2023/06/08 03:48:36;;;;;;;0.95;0.88;;;11.40;99.90;;;;;;5094611;28;20372;-71
2023/06/08 03:51:02;;;;;;;0.77;0.77;;;11.40;99.90;;;;;;5094367;28;20417;-70
2023/06/08 03:53:28;;;;;;;0.50;0.50;;;11.40;99.90;;;;;;5094403;28;20039;-70
2023/06/08 03:55:53;;;;;;;0.50;0.50;;;11.40;99.90;;;;;;5093203;28;20102;-72
2023/06/08 03:58:19;;;;;;;0.50;0.50;;;11.40;99.90;;;;;;5094580;28;20051;-70
2023/06/08 04:00:45;;;;;;;1.15;1.13;;;11.70;99.90;;;;;;5094256;28;20372;-71
2023/06/08 04:03:11;;;;;;;0.50;0.50;;;11.40;99.90;;;;;;5094277;28;20052;-71
2023/06/08 04:05:37;;;;;;;0.50;0.50;;;11.40;99.90;;;;;;5094177;28;20055;-71
2023/06/08 04:08:02;;;;;;;0.50;0.50;;;11.40;99.90;;;;;;5094170;28;20208;-71
2023/06/08 04:10:28;;;;;;;0.40;0.40;;;11.50;99.90;;;;;;5094151;28;20079;-71
2023/06/08 04:12:53;;;;;;;0.50;0.50;;;11.50;99.90;;;;;;5093975;28;20479;-72
2023/06/08 04:15:19;;;;;;;0.40;0.40;;;11.60;99.90;;;;;;5094156;28;20048;-71
2023/06/08 04:17:46;;;;;;;0.50;0.50;;;11.60;99.90;;;;;;5093982;28;20127;-72
2023/06/08 04:20:12;;;;;;;0.50;0.50;;;11.60;99.90;;;;;;5094006;28;20040;-71
2023/06/08 04:22:38;;;;;;;0.40;0.40;;;11.60;99.90;;;;;;5093903;28;20425;-70
2023/06/08 04:25:05;;;;;;;0.50;0.50;;;11.60;99.90;;;;;;5093694;28;20044;-71
2023/06/08 04:27:31;;;;;;;0.75;0.60;;;11.60;99.90;;;;;;5093863;28;20483;-71
2023/06/08 04:29:57;;;;;;;0.40;0.40;;;11.60;99.90;;;;;;5093869;28;20083;-72
2023/06/08 04:32:23;;;;;;;0.83;0.83;;;11.70;99.90;;;;;;5093763;28;20047;-71
2023/06/08 04:34:48;;;;;;;0.50;0.50;;;11.70;99.90;;;;;;5093812;28;20036;-71
2023/06/08 04:37:15;;;;;;;0.50;0.50;;;11.80;99.90;;;;;;5094039;28;20383;-71
2023/06/08 04:39:40;;;;;;;0.50;0.50;;;11.80;99.90;;;;;;5093728;28;20044;-71
2023/06/08 04:42:06;;;;;;;0.40;0.40;;;11.80;99.90;;;;;;5093726;28;20525;-71
2023/06/08 04:44:33;;;;;;;0.50;0.50;;;11.90;99.90;;;;;;5093711;28;20036;-72
2023/06/08 04:46:59;;;;;;;0.40;0.40;;;11.90;99.90;;;;;;5093716;28;20274;-71
2023/06/08 04:49:31;;;;;;;0.50;0.50;;;12.00;99.90;;;;;;5092523;28;20039;-72
2023/06/08 04:51:58;;;;;;;0.60;0.60;;;12.00;99.90;;;;;;5093958;28;20050;-71
2023/06/08 04:54:27;;;;;;;0.40;0.40;;;12.10;99.90;;;;;;5095277;28;20512;-71
2023/06/08 04:56:59;;;;;;;0.40;0.40;;;12.10;99.90;;;;;;5096674;28;20089;-71
2023/06/08 04:59:27;;;;;;;0.50;0.50;;;12.10;99.90;;;;;;5097829;28;20047;-71
2023/06/08 05:01:54;;;;;;;0.40;0.40;;;12.20;99.90;;;;;;5097639;28;20036;-71
2023/06/08 05:04:21;;;;;;;0.75;0.75;;;12.30;99.90;;;;;;5097686;28;20044;-71
2023/06/08 05:06:47;;;;;;;0.40;0.40;;;12.40;99.90;;;;;;5097584;28;20051;-72
2023/06/08 05:09:13;;;;;;;0.40;0.40;;;12.40;99.90;;;;;;5097526;28;20040;-71
2023/06/08 05:11:39;;;;;;;0.50;0.50;;;12.40;99.90;;;;;;5097462;28;20040;-72
2023/06/08 05:14:05;;;;;;;0.50;0.50;;;12.40;99.90;;;;;;5097704;28;20093;-71
2023/06/08 05:16:30;;;;;;;1.03;1.03;;;12.40;99.90;;;;;;5097182;28;20032;-71
2023/06/08 05:18:56;;;;;;;0.50;0.50;;;12.40;99.90;;;;;;5097344;28;20119;-71
2023/06/08 05:21:22;;;;;;;0.47;0.47;;;12.40;99.90;;;;;;5096366;28;20044;-72
2023/06/08 05:23:47;;;;;;;0.50;0.50;;;12.50;99.90;;;;;;5097328;28;20173;-72
2023/06/08 05:26:13;;;;;;;0.50;0.50;;;13.20;99.90;;;;;;5097155;28;20048;-71
2023/06/08 05:28:38;;;;;;;1.45;0.80;;;12.80;99.90;;;;;;5097432;28;20062;-71
2023/06/08 05:31:04;;;;;;;0.40;0.40;;;12.90;99.90;;;;;;5097082;28;20039;-72
2023/06/08 05:33:30;;;;;;;0.75;0.75;;;13.10;99.90;;;;;;5097002;28;20048;-72
2023/06/08 05:35:55;;;;;;;0.40;0.40;;;13.20;99.90;;;;;;5097176;28;20040;-72
2023/06/08 05:38:21;;;;;;;0.50;0.50;;;13.40;99.90;;;;;;5097081;28;20043;-71
2023/06/08 05:40:47;;;;;;;0.40;0.40;;;13.50;99.90;;;;;;5096042;28;20070;-72
2023/06/08 05:43:12;;;;;;;0.40;0.40;;;13.80;99.90;;;;;;5096987;28;20079;-71
2023/06/08 05:45:38;;;;;;;0.30;0.30;;;13.90;99.90;;;;;;5096710;28;20387;-71
2023/06/08 05:48:04;;;;;;;0.60;0.60;;;14.00;99.90;;;;;;5096814;28;20048;-72
2023/06/08 05:50:30;;;;;;;0.93;0.93;;;14.10;99.90;;;;;;5097284;28;20036;-71
2023/06/08 05:52:55;;;;;;;3.10;1.90;;;14.30;99.90;;;;;;5096672;28;20460;-71
2023/06/08 05:55:21;;;;;;;1.70;1.60;;;14.60;99.90;;;;;;5095826;28;20090;-71
2023/06/08 05:57:47;;;;;;;0.50;0.50;;;14.60;99.90;;;;;;5096726;28;20044;-72
2023/06/08 06:00:13;;;;;;;0.50;0.50;;;14.70;99.90;;;;;;5096538;28;20048;-71
2023/06/08 06:02:40;;;;;;;2.25;2.05;;;14.70;99.90;;;;;;5096612;28;20040;-71
2023/06/08 06:05:08;;;;;;;0.80;0.80;;;15.00;99.90;;;;;;5096292;28;20044;-71
2023/06/08 06:07:34;;;;;;;1.35;1.25;;;14.70;99.90;;;;;;5096535;28;20098;-71
2023/06/08 06:10:00;;;;;;;0.50;0.50;;;14.80;99.90;;;;;;5096712;28;20052;-71
2023/06/08 06:12:26;;;;;;;0.50;0.50;;;14.70;99.90;;;;;;5096013;28;20067;-72
2023/06/08 06:14:52;;;;;;;2.00;1.80;;;15.00;99.90;;;;;;5096328;28;20125;-71
2023/06/08 06:17:18;;;;;;;1.35;1.25;;;15.00;99.90;;;;;;5096260;28;20064;-71
2023/06/08 06:19:43;;;;;;;0.50;0.50;;;15.10;99.90;;;;;;5096140;28;20115;-71
2023/06/08 06:22:10;;;;;;;0.60;0.60;;;15.00;99.90;;;;;;5095865;28;20040;-72
2023/06/08 06:24:36;;;;;;;0.60;0.60;;;15.20;99.90;;;;;;5096161;28;20047;-72
2023/06/08 06:27:03;;;;;;;0.60;0.60;;;15.20;99.90;;;;;;5094959;28;20044;-72
2023/06/08 06:29:28;;;;;;;0.60;0.60;;;15.10;99.90;;;;;;5096098;28;20127;-71
2023/06/08 06:31:54;;;;;;;0.50;0.50;;;15.20;99.90;;;;;;5095894;28;20559;-71
2023/06/08 06:34:20;;;;;;;0.50;0.50;;;15.20;99.90;;;;;;5095881;28;20075;-71
2023/06/08 06:36:46;;;;;;;0.97;0.97;;;15.30;99.90;;;;;;5095991;28;20036;-71
2023/06/08 06:39:12;;;;;;;1.08;1.05;;;15.40;99.90;;;;;;5095685;28;20032;-72
2023/06/08 06:41:39;;;;;;;0.67;0.67;;;15.40;99.90;;;;;;5095905;28;20032;-71
2023/06/08 06:44:05;;;;;;;1.23;1.15;;;15.30;99.90;;;;;;5095727;28;20047;-72
2023/06/08 06:46:31;;;;;;;0.50;0.50;;;15.50;99.90;;;;;;5095917;28;20075;-71
2023/06/08 06:48:58;;;;;;;0.50;0.50;;;15.60;99.90;;;;;;5095592;28;20043;-72
2023/06/08 06:51:23;;;;;;;0.77;0.77;;;15.60;99.90;;;;;;5095519;28;20290;-71
2023/06/08 06:53:49;;;;;;;0.50;0.50;;;15.60;99.90;;;;;;5095871;28;20049;-72
2023/06/08 06:56:15;;;;;;;0.50;0.50;;;15.60;99.90;;;;;;5095481;28;20047;-72
2023/06/08 06:58:44;;;;;;;0.50;0.50;;;15.50;99.90;;;;;;5095519;28;20384;-71
2023/06/08 07:01:12;;;;;;;0.57;0.57;;;15.40;99.90;;;;;;5095431;28;20051;-72
2023/06/08 07:03:42;;;;;;;0.40;0.40;;;15.40;99.90;;;;;;5095353;28;20040;-72
2023/06/08 07:06:12;;;;;;;0.40;0.40;;;15.60;99.90;;;;;;5095353;28;20122;-71
2023/06/08 07:08:37;;;;;;;0.40;0.40;;;15.70;99.90;;;;;;5095212;28;20040;-71
2023/06/08 07:11:03;;;;;;;0.50;0.50;;;16.00;99.90;;;;;;5095248;28;20039;-71
2023/06/08 07:13:29;;;;;;;1.93;1.83;;;16.10;99.90;;;;;;5095289;28;20032;-72
2023/06/08 07:15:54;;;;;;;0.52;0.52;;;16.40;99.90;;;;;;5094361;28;20476;-72
2023/06/08 07:18:20;;;;;;;2.70;2.30;;;16.50;99.90;;;;;;5094817;28;20040;-71
2023/06/08 07:20:46;;;;;;;0.40;0.40;;;16.50;99.90;;;;;;5095095;28;20044;-72
2023/06/08 07:23:11;;;;;;;0.60;0.60;;;16.60;99.90;;;;;;5095078;28;20046;-71
2023/06/08 07:25:37;;;;;;;0.40;0.40;;;16.60;99.90;;;;;;5095198;28;20138;-72
2023/06/08 07:28:06;;;;;;;0.60;0.40;;;16.70;99.90;;;;;;5094838;28;20123;-72
2023/06/08 07:30:32;;;;;;;0.50;0.50;;;16.90;99.90;;;;;;5094798;28;20058;-71
2023/06/08 07:32:59;;;;;;;0.40;0.40;;;17.00;99.90;;;;;;5094711;28;20036;-71
2023/06/08 07:35:24;;;;;;;0.40;0.40;;;17.20;99.90;;;;;;5094820;28;20046;-71
2023/06/08 07:37:50;;;;;;;0.40;0.40;;;17.30;99.90;;;;;;5094648;28;20122;-72
2023/06/08 07:40:18;;;;;;;0.95;0.95;;;17.30;99.90;;;;;;5094744;28;20122;-72
2023/06/08 07:42:44;;;;;;;0.47;0.47;;;17.40;99.90;;;;;;5094785;28;20085;-72
2023/06/08 07:45:11;;;;;;;0.70;0.70;;;17.40;99.90;;;;;;5094554;28;20461;-72
2023/06/08 07:47:38;;;;;;;0.35;0.35;;;17.30;99.90;;;;;;5094549;28;20036;-72
2023/06/08 07:50:07;;;;;;;0.93;0.85;;;17.40;99.90;;;;;;5094874;28;20051;-72
2023/06/08 07:52:33;;;;;;;0.82;0.82;;;17.50;99.90;;;;;;5094429;28;20424;-71
2023/06/08 07:54:58;;;;;;;0.40;0.40;;;17.70;99.90;;;;;;5094596;28;20121;-71
2023/06/08 07:57:24;;;;;;;0.60;0.60;;;17.90;99.90;;;;;;5094374;28;20048;-71
2023/06/08 07:59:50;;;;;;;0.40;0.40;;;18.00;99.90;;;;;;5094289;28;20035;-71
2023/06/08 08:02:16;;;;;;;0.40;0.40;;;18.20;99.90;;;;;;5094333;28;20039;-72
2023/06/08 08:04:42;;;;;;;0.30;0.30;;;18.40;99.90;;;;;;5094306;28;20052;-72
2023/06/08 08:07:07;;;;;;;0.40;0.40;;;18.60;99.90;;;;;;5094572;28;20050;-71
2023/06/08 08:09:33;;;;;;;0.43;0.43;;;18.50;99.90;;;;;;5094401;28;20465;-72
2023/06/08 08:11:59;;;;;;;0.30;0.30;;;18.30;99.90;;;;;;5094088;28;20035;-72
2023/06/08 08:14:25;;;;;;;2.00;1.90;;;18.10;99.90;;;;;;5093780;28;20040;-71
2023/06/08 08:16:51;;;;;;;0.47;0.47;;;17.90;99.90;;;;;;5092545;28;20441;-71
2023/06/08 08:19:17;;;;;;;0.40;0.40;;;17.90;99.90;;;;;;5094011;28;20382;-71
2023/06/08 08:21:42;;;;;;;1.27;1.17;;;17.80;99.90;;;;;;5094307;28;20040;-72
2023/06/08 08:24:08;;;;;;;0.30;0.30;;;17.90;99.90;;;;;;5093995;28;20397;-72
2023/06/08 08:26:37;;;;;;;0.40;0.40;;;17.90;99.90;;;;;;5094099;28;20360;-72
2023/06/08 08:29:03;;;;;;;0.60;0.60;;;18.00;99.90;;;;;;5093846;28;20387;-71
2023/06/08 08:31:28;;;;;;;0.40;0.40;;;18.10;99.90;;;;;;5093802;28;20039;-73
2023/06/08 08:33:54;;;;;;;0.30;0.30;;;18.20;99.90;;;;;;5094217;28;20044;-71
2023/06/08 08:36:19;;;;;;;0.30;0.30;;;18.50;99.90;;;;;;5093800;28;20115;-72
2023/06/08 08:38:45;;;;;;;0.40;0.40;;;18.80;99.90;;;;;;5093791;28;20125;-72
2023/06/08 08:41:14;;;;;;;0.60;0.60;;;19.10;99.90;;;;;;5093757;28;20036;-73
2023/06/08 08:44:19;;;;;;;0.40;0.40;;;19.40;99.90;;;;;;5093742;28;20396;-72
2023/06/08 08:46:48;;;;;;;0.40;0.40;;;19.80;99.90;;;;;;5011589;28;20389;-73
2023/06/08 08:49:15;;;;;;;0.60;0.60;;;20.00;99.90;;;;;;5011635;28;20153;-73
2023/06/08 08:51:49;;;;;;;0.30;0.30;;;20.10;99.90;;;;;;5053141;28;20044;-71
2023/06/08 08:54:16;;;;;;;0.30;0.30;;;20.40;99.90;;;;;;5093620;28;20122;-72
2023/06/08 08:56:42;;;;;;;;;;;20.60;99.90;;;;;;5094469;28;20345;-73
2023/06/08 08:59:09;;;;;;;0.30;0.30;;;20.70;99.90;;;;;;5093478;28;19969;-73
2023/06/08 09:01:35;;;;;;;10.15;1.85;;;20.80;99.90;;;;;;5092620;28;20444;-73
2023/06/08 09:04:01;;;;;;;0.30;0.30;;;20.80;99.90;;;;;;5093670;28;20080;-73
2023/06/08 09:06:30;;;;;;;0.20;0.20;;;20.90;99.90;;;;;;5093642;28;20071;-72
2023/06/08 09:08:55;;;;;;;0.30;0.30;;;20.90;99.90;;;;;;5093448;28;20043;-72
2023/06/08 09:11:21;;;;;;;0.30;0.30;;;21.10;99.90;;;;;;5093836;28;20471;-72
2023/06/08 09:13:47;;;;;;;0.57;0.57;;;21.20;99.90;;;;;;5093872;28;20043;-72
2023/06/08 09:16:21;;;;;;;0.77;0.70;;;21.10;99.90;;;;;;5093432;28;20118;-73
2023/06/08 09:19:02;;;;;;;0.30;0.30;;;20.90;99.90;;;;;;5093282;28;20050;-72
2023/06/08 09:21:28;;;;;;;0.40;0.40;;;21.00;99.90;;;;;;5093424;28;20078;-73
2023/06/08 09:24:22;;;;;;;0.30;0.30;;;21.30;99.90;;;;;;5094160;28;20052;-70
2023/06/08 09:26:49;;;;;;;0.30;0.30;;;21.40;99.90;;;;;;5093391;28;20089;-70
2023/06/08 09:29:42;;;;;;;0.50;0.50;;;21.30;99.90;;;;;;5093345;28;20028;-71
2023/06/08 09:32:12;;;;;;;0.40;0.40;;;21.20;99.90;;;;;;5093454;28;20436;-70
2023/06/08 09:34:56;;;;;;;0.30;0.30;;;21.00;99.90;;;;;;5093581;28;20044;-70
2023/06/08 09:37:26;;;;;;;0.30;0.30;;;21.20;99.90;;;;;;5092087;28;20479;-71
2023/06/08 09:39:53;;;;;;;0.30;0.30;;;21.30;99.90;;;;;;5095618;28;20044;-71
2023/06/08 09:42:19;;;;;;;3.28;3.08;;;21.40;99.90;;;;;;5095634;28;20529;-70
2023/06/08 09:44:44;;;;;;;0.40;0.40;;;21.50;99.90;;;;;;5096948;28;20048;-71
2023/06/08 09:47:25;;;;;;;3.03;0.90;;;21.60;99.90;;;;;;5096891;28;20433;-71
2023/06/08 09:49:52;;;;;;;0.30;0.30;;;21.70;99.90;;;;;;5096678;28;20046;-70
2023/06/08 09:52:21;;;;;;;;;;;21.70;99.90;;;;;;5097132;28;20032;-71
2023/06/08 09:54:47;;;;;;;0.30;0.30;;;21.70;99.90;;;;;;5096662;28;19919;-71
2023/06/08 09:57:18;;;;;;;0.30;0.30;;;21.90;99.90;;;;;;5095527;28;20053;-71
2023/06/08 09:59:53;;;;;;;0.30;0.30;;;22.00;99.90;;;;;;5096990;28;20047;-71
2023/06/08 10:02:32;;;;;;;0.30;0.30;;;22.10;99.90;;;;;;5096471;28;20126;-72
2023/06/08 10:05:01;;;;;;;0.30;0.30;;;22.10;99.90;;;;;;5096859;28;20048;-71
2023/06/08 10:07:29;;;;;;;0.40;0.40;;;22.20;99.90;;;;;;5096149;28;20044;-71
2023/06/08 10:10:24;;;;;;;0.40;0.40;;;22.30;99.90;;;;;;5096457;28;20085;-71
2023/06/08 10:12:51;;;;;;;0.40;0.40;;;22.10;99.90;;;;;;5085380;28;20135;-71
2023/06/08 10:15:18;;;;;;;;;;;22.10;99.90;;;;;;5096977;28;20051;-71
2023/06/08 10:17:45;;;;;;;0.40;0.40;;;22.10;99.90;;;;;;5096397;28;20244;-71
2023/06/08 10:20:12;;;;;;;1.08;0.57;;;21.90;99.90;;;;;;5095971;28;20391;-71
2023/06/08 10:22:40;;;;;;;0.20;0.20;;;21.90;99.90;;;;;;5096689;28;20379;-71
2023/06/08 10:25:07;;;;;;;0.30;0.30;;;21.90;99.90;;;;;;5096235;28;20050;-70
2023/06/08 10:27:33;;;;;;;0.40;0.40;;;21.60;99.90;;;;;;5096116;28;20048;-71
2023/06/08 10:30:04;;;;;;;0.30;0.30;;;21.60;99.90;;;;;;5096143;28;20040;-70
2023/06/08 10:32:34;;;;;;;0.47;0.47;;;21.60;99.90;;;;;;5094683;28;20076;-71
2023/06/08 10:35:06;;;;;;;0.30;0.30;;;21.80;99.90;;;;;;5094907;28;20122;-71
2023/06/08 10:37:34;;;;;;;0.55;0.55;;;22.00;99.90;;;;;;5095844;28;20464;-72
2023/06/08 10:40:08;;;;;;;0.30;0.30;;;22.10;99.90;;;;;;5096081;28;20081;-71
2023/06/08 10:42:34;;;;;;;0.30;0.30;;;22.20;99.90;;;;;;5095863;28;20119;-70
2023/06/08 10:45:01;;;;;;;0.30;0.30;;;22.40;99.90;;;;;;5095445;28;20071;-71
2023/06/08 10:47:31;;;;;;;0.30;0.30;;;22.60;99.90;;;;;;5095697;28;20043;-71
2023/06/08 10:50:08;;;;;;;1.27;0.73;;;23.00;99.90;;;;;;5095306;28;20040;-71
2023/06/08 10:52:46;;;;;;;0.30;0.30;;;23.20;99.90;;;;;;5095169;28;20055;-71
2023/06/08 10:55:13;;;;;;;0.30;0.30;;;23.20;99.90;;;;;;5095756;28;20040;-71
2023/06/08 10:57:53;;;;;;;0.40;0.40;;;23.40;99.90;;;;;;5095506;28;20047;-71
2023/06/08 11:00:29;;;;;;;0.30;0.30;;;23.40;99.90;;;;;;5095898;28;20035;-71
2023/06/08 11:03:08;;;;;;;0.30;0.30;;;23.40;99.90;;;;;;5095566;28;20040;-70
2023/06/08 11:05:39;;;;;;;0.30;0.30;;;23.40;99.90;;;;;;5095404;28;20063;-71
2023/06/08 11:08:08;;;;;;;0.40;0.40;;;23.50;99.90;;;;;;5094444;28;20051;-71
2023/06/08 11:10:36;;;;;;;0.30;0.30;;;23.60;99.90;;;;;;5094604;28;20341;-71
2023/06/08 11:13:09;;;;;;;0.20;0.20;;;23.70;99.90;;;;;;5095254;28;20039;-71
2023/06/08 11:15:37;;;;;;;0.30;0.30;;;23.70;99.90;;;;;;5095513;28;20123;-72
2023/06/08 11:18:04;;;;;;;0.20;0.20;;;23.80;99.90;;;;;;5095085;28;20079;-72
2023/06/08 11:20:30;;;;;;;0.20;0.20;;;24.00;99.90;;;;;;5095081;28;20046;-71
2023/06/08 11:22:56;;;;;;;1.33;0.30;;;24.20;99.90;;;;;;5095524;28;20442;-72
2023/06/08 11:25:23;;;;;;;0.63;0.63;;;24.20;99.90;;;;;;5095420;28;20376;-71
2023/06/08 11:27:57;;;;;;;2.67;1.42;;;24.00;99.90;;;;;;5094949;28;20363;-72
2023/06/08 11:30:36;;;;;;;0.20;0.20;;;24.00;99.90;;;;;;5094773;28;20468;-72
2023/06/08 11:33:06;;;;;;;0.30;0.30;;;23.90;99.90;;;;;;5094917;28;20075;-71
2023/06/08 11:35:33;;;;;;;0.20;0.20;;;23.90;99.90;;;;;;5093577;28;20045;-72
2023/06/08 11:38:00;;;;;;;0.20;0.20;;;23.90;99.90;;;;;;5094804;28;20105;-72
2023/06/08 11:40:26;;;;;;;;;;;23.90;99.90;;;;;;5095049;28;20044;-71
2023/06/08 11:42:52;;;;;;;0.70;0.68;;;24.00;99.90;;;;;;5094701;28;20010;-71
2023/06/08 11:45:18;;;;;;;0.30;0.30;;;24.30;99.90;;;;;;5094669;28;20036;-71
2023/06/08 11:47:45;;;;;;;0.30;0.30;;;24.40;99.90;;;;;;5094403;28;20118;-71
2023/06/08 11:50:12;;;;;;;0.30;0.30;;;24.60;99.90;;;;;;5094299;28;20500;-71
2023/06/08 11:52:42;;;;;;;0.45;0.45;;;24.80;99.90;;;;;;5094418;28;20043;-71
2023/06/08 11:55:12;;;;;;;0.35;0.35;;;24.80;99.90;;;;;;5094402;28;20169;-73
2023/06/08 11:57:41;;;;;;;0.20;0.20;;;24.90;99.90;;;;;;5094470;28;20478;-72
2023/06/08 12:00:09;;;;;;;0.30;0.30;;;25.00;99.90;;;;;;5094476;28;20044;-72
2023/06/08 12:02:36;;;;;;;0.30;0.30;;;24.80;99.90;;;;;;5093924;28;20032;-71
2023/06/08 12:05:03;;;;;;;0.40;0.40;;;24.40;99.90;;;;;;5094811;28;20123;-71
2023/06/08 12:07:29;;;;;;;0.30;0.30;;;24.30;99.90;;;;;;5094773;28;20499;-72
2023/06/08 12:09:55;;;;;;;0.30;0.30;;;24.30;99.90;;;;;;5094262;28;20043;-72
2023/06/08 12:12:26;;;;;;;0.43;0.43;;;24.40;99.90;;;;;;5094120;28;20119;-72
2023/06/08 12:14:52;;;;;;;0.20;0.20;;;24.50;99.90;;;;;;5094082;28;20270;-71
2023/06/08 12:17:25;;;;;;;0.30;0.30;;;24.40;99.90;;;;;;5094133;28;20055;-72
2023/06/08 12:19:52;;;;;;;0.30;0.30;;;24.30;99.90;;;;;;5093387;28;20134;-71
2023/06/08 12:22:18;;;;;;;0.20;0.20;;;24.20;99.90;;;;;;5094055;28;20036;-71
2023/06/08 12:24:45;;;;;;;0.30;0.30;;;24.30;99.90;;;;;;5093950;28;20051;-70
2023/06/08 12:27:10;;;;;;;0.40;0.40;;;24.40;99.90;;;;;;5094020;28;20055;-71
2023/06/08 12:29:37;;;;;;;0.20;0.20;;;24.70;99.90;;;;;;5093944;28;20028;-71
2023/06/08 12:32:06;;;;;;;0.20;0.20;;;24.90;99.90;;;;;;5094257;28;20040;-71
2023/06/08 12:34:32;;;;;;;0.20;0.20;;;25.00;99.90;;;;;;5094233;28;20078;-71
2023/06/08 12:36:58;;;;;;;0.40;0.40;;;25.10;99.80;;;;;;5094099;28;20111;-71
2023/06/08 12:39:24;;;;;;;0.30;0.30;;;25.30;99.10;;;;;;5093832;28;20047;-72
2023/06/08 12:41:50;;;;;;;0.20;0.20;;;25.20;99.90;;;;;;5093744;28;20118;-71
2023/06/08 12:44:16;;;;;;;0.40;0.40;;;25.40;99.90;;;;;;5093672;28;20040;-71
2023/06/08 12:46:41;;;;;;;0.50;0.50;;;25.60;99.90;;;;;;5093702;28;20040;-71
2023/06/08 12:49:07;;;;;;;0.30;0.30;;;25.90;99.80;;;;;;5094112;28;20423;-71
2023/06/08 12:51:33;;;;;;;0.20;0.20;;;26.00;99.70;;;;;;5093585;28;20039;-70